createdAt,value
2023-02-17T00:01:33.929Z,101093.02
2023-02-17T00:04:02.103Z,101092.17
2023-02-17T00:06:32.214Z,101089.79
2023-02-17T00:09:00.621Z,101091.33
2023-02-17T00:11:29.162Z,101091.49
2023-02-17T00:13:57.198Z,101093.08
2023-02-17T00:16:27.378Z,101094.48
2023-02-17T00:18:58.513Z,101097.77
2023-02-17T00:21:29.444Z,101096.02
2023-02-17T00:23:58.945Z,101098.41
2023-02-17T00:26:27.676Z,101092.91
2023-02-17T00:28:55.533Z,101085.35
2023-02-17T00:31:24.153Z,101079.34
2023-02-17T00:33:55.633Z,101079.15
2023-02-17T00:36:24.415Z,101084.31
2023-02-17T00:38:54.533Z,101079.65
2023-02-17T00:41:23.747Z,101071.90
2023-02-17T00:43:51.803Z,101068.47
2023-02-17T00:46:20.009Z,101070.73
2023-02-17T00:48:49.211Z,101073.53
2023-02-17T00:51:18.385Z,101073.20
2023-02-17T00:53:46.788Z,101068.54
2023-02-17T00:56:15.271Z,101070.81
2023-02-17T00:58:46.377Z,101068.57
2023-02-17T01:01:14.819Z,101061.70
2023-02-17T01:03:44.093Z,101061.52
2023-02-17T01:06:22.611Z,101062.90
2023-02-17T01:08:50.884Z,101063.22
2023-02-17T01:11:21.054Z,101059.62
2023-02-17T01:13:49.532Z,101059.44
2023-02-17T01:16:24.476Z,101057.36
2023-02-17T01:18:52.818Z,101052.90
2023-02-17T01:21:27.629Z,101053.92
2023-02-17T01:23:58.369Z,101057.20
2023-02-17T01:26:28.966Z,101051.36
2023-02-17T01:28:57.579Z,101045.69
2023-02-17T01:31:29.507Z,101042.23
2023-02-17T01:33:59.505Z,101042.06
2023-02-17T01:36:27.749Z,101039.50
2023-02-17T01:38:55.782Z,101039.48
2023-02-17T01:41:27.179Z,101037.77
2023-02-17T01:44:25.583Z,101032.45
2023-02-17T01:46:55.509Z,101034.46
2023-02-17T01:49:29.436Z,101035.78
2023-02-17T01:52:07.470Z,101037.98
2023-02-17T01:54:41.878Z,101041.44
2023-02-17T01:57:12.864Z,101036.09
2023-02-17T01:59:42.077Z,101039.23
2023-02-17T02:02:11.025Z,101041.45
2023-02-17T02:04:42.803Z,101037.98
2023-02-17T02:07:21.802Z,101032.82
2023-02-17T02:09:54.764Z,101030.05
2023-02-17T02:12:27.517Z,101026.45
2023-02-17T02:14:58.634Z,101026.45
2023-02-17T02:17:32.456Z,101024.92
2023-02-17T02:20:39.344Z,101027.52
2023-02-17T02:23:27.260Z,101023.73
2023-02-17T02:26:11.226Z,101023.36
2023-02-17T02:29:13.102Z,101020.08
2023-02-17T02:32:22.654Z,101022.84
2023-02-17T02:35:01.343Z,101020.93
2023-02-17T02:38:06.988Z,101022.98
2023-02-17T02:40:41.254Z,101021.42
2023-02-17T02:43:10.122Z,101023.70
2023-02-17T02:45:38.267Z,101023.19
2023-02-17T02:48:06.358Z,101024.21
2023-02-17T02:50:35.085Z,101027.27
2023-02-17T02:53:22.654Z,101025.20
2023-02-17T02:56:00.012Z,101027.45
2023-02-17T02:58:42.600Z,101028.67
2023-02-17T03:01:23.826Z,101028.86
2023-02-17T03:03:57.895Z,101029.55
2023-02-17T03:06:32.217Z,101030.62
2023-02-17T03:09:18.459Z,101032.33
2023-02-17T03:11:47.853Z,101039.52
2023-02-17T03:14:19.428Z,101042.97
2023-02-17T03:16:48.598Z,101046.95
2023-02-17T03:19:21.706Z,101054.52
2023-02-17T03:21:58.593Z,101057.63
2023-02-17T03:24:26.558Z,101056.81
2023-02-17T03:26:54.533Z,101061.30
2023-02-17T03:29:22.603Z,101064.25
2023-02-17T03:31:50.634Z,101059.79
2023-02-17T03:34:18.650Z,101050.52
2023-02-17T03:36:46.723Z,101052.79
2023-02-17T03:39:14.721Z,101042.94
2023-02-17T03:41:42.829Z,101038.05
2023-02-17T03:44:10.806Z,101036.25
2023-02-17T03:46:40.840Z,101035.29
2023-02-17T03:49:08.714Z,101036.34
2023-02-17T03:51:36.852Z,101031.70
2023-02-17T03:54:05.758Z,101032.08
2023-02-17T03:56:33.648Z,101038.47
2023-02-17T03:59:02.075Z,101040.07
2023-02-17T04:01:30.641Z,101043.28
2023-02-17T04:03:58.651Z,101035.84
2023-02-17T04:06:26.729Z,101028.06
2023-02-17T04:08:54.618Z,101020.66
2023-02-17T04:11:22.689Z,101021.86
2023-02-17T04:13:50.749Z,101022.58
2023-02-17T04:16:18.787Z,101026.37
2023-02-17T04:18:46.853Z,101028.95
2023-02-17T04:21:14.754Z,101025.52
2023-02-17T04:23:42.844Z,101028.85
2023-02-17T04:26:11.182Z,101023.71
2023-02-17T04:28:40.795Z,101025.95
2023-02-17T04:31:08.876Z,101028.31
2023-02-17T04:33:37.994Z,101031.41
2023-02-17T04:36:06.667Z,101027.80
2023-02-17T04:38:35.471Z,101032.11
2023-02-17T04:41:03.609Z,101030.73
2023-02-17T04:43:31.610Z,101030.55
2023-02-17T04:45:59.659Z,101033.32
2023-02-17T04:48:27.906Z,101034.88
2023-02-17T04:50:55.757Z,101033.52
2023-02-17T04:53:23.727Z,101037.00
2023-02-17T04:55:53.477Z,101043.23
2023-02-17T04:58:22.195Z,101044.08
2023-02-17T05:00:50.684Z,101046.19
2023-02-17T05:03:19.406Z,101050.55
2023-02-17T05:05:47.831Z,101050.91
2023-02-17T05:08:15.947Z,101052.81
2023-02-17T05:10:44.112Z,101058.23
2023-02-17T05:13:11.929Z,101062.17
2023-02-17T05:15:39.892Z,101065.80
2023-02-17T05:18:07.949Z,101069.89
2023-02-17T05:20:35.884Z,101065.16
2023-02-17T05:23:03.815Z,101065.58
2023-02-17T05:25:31.873Z,101067.80
2023-02-17T05:27:59.752Z,101067.16
2023-02-17T05:30:28.284Z,101067.15
2023-02-17T05:32:56.619Z,101070.06
2023-02-17T05:35:24.630Z,101069.55
2023-02-17T05:37:52.594Z,101070.92
2023-02-17T05:40:20.628Z,101070.77
2023-02-17T05:42:48.409Z,101070.60
2023-02-17T05:45:16.561Z,101068.34
2023-02-17T05:47:44.594Z,101070.39
2023-02-17T05:50:12.666Z,101075.70
2023-02-17T05:52:40.567Z,101073.77
2023-02-17T05:55:08.606Z,101076.33
2023-02-17T05:57:36.686Z,101079.98
2023-02-17T06:00:06.278Z,101077.90
2023-02-17T06:02:43.316Z,101077.34
2023-02-17T06:05:11.364Z,101078.25
2023-02-17T06:07:39.300Z,101079.64
2023-02-17T06:10:08.755Z,101084.66
2023-02-17T06:12:36.854Z,101089.20
2023-02-17T06:15:05.151Z,101093.47
2023-02-17T06:17:32.990Z,101095.42
2023-02-17T06:20:01.090Z,101098.31
2023-02-17T06:22:29.071Z,101093.30
2023-02-17T06:24:57.098Z,101091.10
2023-02-17T06:27:26.668Z,101090.48
2023-02-17T06:29:54.640Z,101090.66
2023-02-17T06:32:22.600Z,101086.84
2023-02-17T06:34:50.550Z,101085.92
2023-02-17T06:37:18.608Z,101089.31
2023-02-17T06:39:46.669Z,101094.75
2023-02-17T06:42:14.974Z,101101.73
2023-02-17T06:44:42.992Z,101101.02
2023-02-17T06:47:10.869Z,101098.70
2023-02-17T06:49:40.885Z,101099.01
2023-02-17T06:52:09.351Z,101103.64
2023-02-17T06:54:37.313Z,101111.36
2023-02-17T06:57:05.436Z,101114.30
2023-02-17T06:59:34.284Z,101120.95
2023-02-17T07:02:02.827Z,101114.09
2023-02-17T07:04:31.072Z,101107.70
2023-02-17T07:06:59.161Z,101107.52
2023-02-17T07:09:27.242Z,101106.52
2023-02-17T07:11:55.193Z,101100.08
2023-02-17T07:14:26.849Z,101100.20
2023-02-17T07:16:56.269Z,101101.90
2023-02-17T07:19:27.266Z,101097.75
2023-02-17T07:21:56.609Z,101094.91
2023-02-17T07:24:24.824Z,101091.02
2023-02-17T07:26:55.728Z,101095.66
2023-02-17T07:29:24.065Z,101093.84
2023-02-17T07:31:52.174Z,101090.90
2023-02-17T07:34:20.036Z,101088.54
2023-02-17T07:36:47.903Z,101093.55
2023-02-17T07:39:16.171Z,101091.84
2023-02-17T07:41:44.063Z,101088.09
2023-02-17T07:44:12.126Z,101086.65
2023-02-17T07:46:40.344Z,101085.36
2023-02-17T07:49:08.652Z,101086.30
2023-02-17T07:51:36.626Z,101089.21
2023-02-17T07:54:04.730Z,101095.02
2023-02-17T07:56:35.665Z,101096.56
2023-02-17T07:59:03.643Z,101097.80
2023-02-17T08:01:31.630Z,101096.88
2023-02-17T08:03:59.619Z,101100.30
2023-02-17T08:06:27.958Z,101100.84
2023-02-17T08:09:15.851Z,101095.59
2023-02-17T08:12:02.970Z,101091.93
2023-02-17T08:14:33.452Z,101092.79
2023-02-17T08:17:01.691Z,101089.05
2023-02-17T08:19:39.757Z,101086.67
2023-02-17T08:22:16.036Z,101084.61
2023-02-17T08:24:44.764Z,101087.48
2023-02-17T08:27:15.059Z,101090.50
2023-02-17T08:29:43.799Z,101091.33
2023-02-17T08:32:13.165Z,101089.88
2023-02-17T08:34:41.323Z,101084.79
2023-02-17T08:37:10.535Z,101082.64
2023-02-17T08:39:38.939Z,101080.79
2023-02-17T08:42:06.954Z,101075.38
2023-02-17T08:44:36.612Z,101078.11
2023-02-17T08:47:05.713Z,101078.89
2023-02-17T08:49:33.806Z,101075.35
2023-02-17T08:52:03.063Z,101071.22
2023-02-17T08:54:34.472Z,101074.31
2023-02-17T08:57:02.658Z,101068.52
2023-02-17T08:59:33.469Z,101069.86
2023-02-17T09:02:01.618Z,101071.31
2023-02-17T09:04:29.714Z,101065.52
2023-02-17T09:06:58.486Z,101062.00
2023-02-17T09:09:27.858Z,101059.89
2023-02-17T09:11:57.802Z,101064.91
2023-02-17T09:14:25.907Z,101057.95
2023-02-17T09:16:56.851Z,101060.55
2023-02-17T09:19:25.880Z,101062.09
2023-02-17T09:21:54.272Z,101059.89
2023-02-17T09:24:22.407Z,101063.83
2023-02-17T09:26:51.167Z,101064.29
2023-02-17T09:29:19.436Z,101071.10
2023-02-17T09:31:47.557Z,101071.79
2023-02-17T09:34:15.881Z,101074.15
2023-02-17T09:36:44.277Z,101078.48
2023-02-17T09:39:14.225Z,101073.30
2023-02-17T09:41:45.467Z,101069.01
2023-02-17T09:44:24.722Z,101073.42
2023-02-17T09:47:05.573Z,101079.19
2023-02-17T09:49:48.216Z,101082.46
2023-02-17T09:52:30.653Z,101083.71
2023-02-17T09:55:11.978Z,101077.23
2023-02-17T09:57:55.346Z,101075.00
2023-02-17T10:00:34.954Z,101071.66
2023-02-17T10:03:17.742Z,101073.75
2023-02-17T10:06:06.030Z,101068.47
2023-02-17T10:09:08.086Z,101069.23
2023-02-17T10:11:39.321Z,101072.33
2023-02-17T10:14:17.666Z,101073.85
2023-02-17T10:16:54.076Z,101079.70
2023-02-17T10:19:30.730Z,101077.41
2023-02-17T10:22:14.906Z,101072.36
2023-02-17T10:24:42.943Z,101058.10
2023-02-17T10:27:30.281Z,101047.67
2023-02-17T10:30:07.548Z,101045.91
2023-02-17T10:32:58.543Z,101039.73
2023-02-17T10:35:41.244Z,101038.02
2023-02-17T10:38:24.467Z,101032.25
2023-02-17T10:40:56.677Z,101030.16
2023-02-17T10:43:31.715Z,101035.24
2023-02-17T10:46:07.222Z,101037.19
2023-02-17T10:48:43.078Z,101036.16
2023-02-17T10:51:16.232Z,101032.67
2023-02-17T10:53:51.929Z,101035.77
2023-02-17T10:56:24.715Z,101034.95
2023-02-17T10:59:19.276Z,101033.21
2023-02-17T11:01:50.831Z,101029.32
2023-02-17T11:04:18.916Z,101029.29
2023-02-17T11:06:52.850Z,101023.17
2023-02-17T11:09:28.784Z,101016.60
2023-02-17T11:11:59.953Z,101012.90
2023-02-17T11:14:29.715Z,101007.27
2023-02-17T11:17:01.099Z,101015.34
2023-02-17T11:19:35.284Z,101018.38
2023-02-17T11:22:24.802Z,101016.89
2023-02-17T11:25:01.320Z,101016.71
2023-02-17T11:27:29.383Z,101016.07
2023-02-17T11:30:14.289Z,101014.42
2023-02-17T11:32:42.319Z,101013.49
2023-02-17T11:35:42.683Z,101006.67
2023-02-17T11:38:14.670Z,101000.25
2023-02-17T11:40:56.285Z,100997.05
2023-02-17T11:43:25.055Z,100994.27
2023-02-17T11:46:01.102Z,100989.99
2023-02-17T11:48:39.937Z,100989.23
2023-02-17T11:51:14.781Z,100990.61
2023-02-17T11:53:56.110Z,100987.57
2023-02-17T11:56:33.141Z,100992.60
2023-02-17T11:59:28.767Z,100989.29
2023-02-17T12:02:21.124Z,100982.91
2023-02-17T12:05:04.376Z,100972.45
2023-02-17T12:07:42.954Z,100965.83
2023-02-17T12:10:34.163Z,100960.61
2023-02-17T12:13:21.874Z,100954.63
2023-02-17T12:16:03.588Z,100947.13
2023-02-17T12:18:53.673Z,100941.94
2023-02-17T12:21:33.937Z,100938.04
2023-02-17T12:24:27.918Z,100937.83
2023-02-17T12:26:59.417Z,100939.25
2023-02-17T12:29:58.479Z,100937.04
2023-02-17T12:32:36.675Z,100928.90
2023-02-17T12:35:51.068Z,100929.23
2023-02-17T12:38:27.236Z,100923.55
2023-02-17T12:41:14.535Z,100920.83
2023-02-17T12:44:20.922Z,100924.91
2023-02-17T12:47:32.415Z,100924.11
2023-02-17T12:50:16.969Z,100921.06
2023-02-17T12:52:48.868Z,100925.91
2023-02-17T12:55:22.966Z,100932.59
2023-02-17T12:57:58.576Z,100930.96
2023-02-17T13:00:41.823Z,100932.92
2023-02-17T13:03:11.214Z,100931.75
2023-02-17T13:05:51.689Z,100929.22
2023-02-17T13:08:38.178Z,100931.26
2023-02-17T13:11:25.517Z,100933.35
2023-02-17T13:13:53.520Z,100938.03
2023-02-17T13:16:21.893Z,100938.66
2023-02-17T13:18:52.214Z,100943.02
2023-02-17T13:21:25.046Z,100943.16
2023-02-17T13:24:16.614Z,100935.05
2023-02-17T13:26:49.296Z,100931.17
2023-02-17T13:29:26.085Z,100931.33
2023-02-17T13:32:04.008Z,100929.69
2023-02-17T13:34:38.454Z,100924.48
2023-02-17T13:37:18.722Z,100920.39
2023-02-17T13:39:46.726Z,100922.04
2023-02-17T13:42:47.876Z,100913.98
2023-02-17T13:45:42.889Z,100909.83
2023-02-17T13:48:25.352Z,100907.02
2023-02-17T13:50:59.449Z,100901.23
2023-02-17T13:53:42.309Z,100900.95
2023-02-17T13:56:23.596Z,100902.25
2023-02-17T13:58:51.604Z,100903.27
2023-02-17T14:01:27.452Z,100907.59
2023-02-17T14:03:56.950Z,100905.36
2023-02-17T14:06:28.117Z,100903.91
2023-02-17T14:08:57.470Z,100904.55
2023-02-17T14:11:28.100Z,100899.17
2023-02-17T14:13:57.844Z,100890.27
2023-02-17T14:16:30.588Z,100871.80
2023-02-17T14:19:05.196Z,100864.42
2023-02-17T14:21:34.680Z,100865.41
2023-02-17T14:24:03.151Z,100865.98
2023-02-17T14:26:49.136Z,100866.56
2023-02-17T14:29:17.072Z,100875.88
2023-02-17T14:31:48.356Z,100878.14
2023-02-17T14:34:31.996Z,100874.55
2023-02-17T14:37:10.356Z,100869.11
2023-02-17T14:39:38.421Z,100863.62
2023-02-17T14:42:06.336Z,100865.08
2023-02-17T14:44:34.349Z,100872.77
2023-02-17T14:47:05.393Z,100865.38
2023-02-17T14:49:33.518Z,100855.13
2023-02-17T14:52:14.383Z,100870.20
2023-02-17T14:54:42.498Z,100865.10
2023-02-17T14:57:15.531Z,100851.14
2023-02-17T14:59:44.124Z,100836.56
2023-02-17T15:02:18.081Z,100851.02
2023-02-17T15:04:46.360Z,100847.70
2023-02-17T15:07:17.445Z,100844.95
2023-02-17T15:09:48.338Z,100842.41
2023-02-17T15:12:21.314Z,100842.90
2023-02-17T15:14:49.416Z,100840.81
2023-02-17T15:17:17.514Z,100839.96
2023-02-17T15:19:45.376Z,100840.41
2023-02-17T15:22:14.243Z,100838.24
2023-02-17T15:24:42.372Z,100836.09
2023-02-17T15:27:14.330Z,100839.70
2023-02-17T15:29:42.292Z,100844.36
2023-02-17T15:32:23.973Z,100847.02
2023-02-17T15:34:52.242Z,100845.67
2023-02-17T15:37:20.284Z,100840.67
2023-02-17T15:39:48.190Z,100836.83
2023-02-17T15:42:17.354Z,100835.42
2023-02-17T15:44:50.656Z,100833.05
2023-02-17T15:47:20.586Z,100837.73
2023-02-17T15:49:48.470Z,100837.89
2023-02-17T15:52:16.485Z,100839.05
2023-02-17T15:54:44.491Z,100841.23
2023-02-17T15:57:22.030Z,100837.74
2023-02-17T15:59:50.251Z,100834.13
2023-02-17T16:02:21.852Z,100830.08
2023-02-17T16:04:50.004Z,100833.02
2023-02-17T16:07:20.675Z,100827.24
2023-02-17T16:09:48.672Z,100821.30
2023-02-17T16:12:26.707Z,100827.29
2023-02-17T16:14:56.807Z,100834.38
2023-02-17T16:17:25.909Z,100835.71
2023-02-17T16:19:54.132Z,100834.76
2023-02-17T16:22:22.258Z,100834.60
2023-02-17T16:24:50.256Z,100823.14
2023-02-17T16:27:18.304Z,100828.71
2023-02-17T16:29:46.336Z,100833.06
2023-02-17T16:32:15.957Z,100840.05
2023-02-17T16:34:44.151Z,100849.81
2023-02-17T16:37:16.027Z,100847.79
2023-02-17T16:39:44.496Z,100845.52
2023-02-17T16:42:13.301Z,100831.90
2023-02-17T16:44:41.242Z,100825.99
2023-02-17T16:47:20.720Z,100828.77
2023-02-17T16:49:50.410Z,100833.23
2023-02-17T16:52:27.920Z,100823.98
2023-02-17T16:54:58.019Z,100819.04
2023-02-17T16:57:26.536Z,100818.60
2023-02-17T16:59:54.416Z,100815.13
2023-02-17T17:02:22.419Z,100805.00
2023-02-17T17:04:50.414Z,100793.58
2023-02-17T17:07:18.487Z,100785.92
2023-02-17T17:10:14.391Z,100787.70
2023-02-17T17:12:37.268Z,100789.90
2023-02-17T17:15:05.732Z,100785.23
2023-02-17T17:17:42.881Z,100784.95
2023-02-17T17:20:27.049Z,100782.23
2023-02-17T17:22:55.139Z,100780.15
2023-02-17T17:25:23.267Z,100773.61
2023-02-17T17:27:51.469Z,100770.57
2023-02-17T17:30:23.411Z,100770.05
2023-02-17T17:32:51.657Z,100776.04
2023-02-17T17:35:20.168Z,100776.04
2023-02-17T17:37:48.519Z,100776.79
2023-02-17T17:40:23.915Z,100776.71
2023-02-17T17:42:52.301Z,100771.20
2023-02-17T17:45:24.873Z,100768.22
2023-02-17T17:47:53.070Z,100773.04
2023-02-17T17:50:24.896Z,100771.72
2023-02-17T17:52:53.472Z,100767.88
2023-02-17T17:55:23.194Z,100762.77
2023-02-17T17:57:51.197Z,100755.12
2023-02-17T18:00:19.762Z,100742.88
2023-02-17T18:02:47.712Z,100739.67
2023-02-17T18:05:15.982Z,100736.70
2023-02-17T18:07:46.894Z,100731.91
2023-02-17T18:10:15.357Z,100728.36
2023-02-17T18:12:45.659Z,100732.73
2023-02-17T18:15:15.194Z,100728.59
2023-02-17T18:17:43.512Z,100718.98
2023-02-17T18:20:13.015Z,100717.39
2023-02-17T18:22:41.343Z,100710.60
2023-02-17T18:25:10.278Z,100706.02
2023-02-17T18:27:46.521Z,100698.55
2023-02-17T18:30:18.996Z,100692.98
2023-02-17T18:32:48.014Z,100694.96
2023-02-17T18:35:17.978Z,100693.46
2023-02-17T18:37:46.623Z,100689.80
2023-02-17T18:40:17.844Z,100687.09
2023-02-17T18:42:46.096Z,100680.35
2023-02-17T18:45:16.034Z,100677.39
2023-02-17T18:47:44.103Z,100672.80
2023-02-17T18:50:13.724Z,100661.83
2023-02-17T18:52:44.008Z,100659.95
2023-02-17T18:55:15.413Z,100655.77
2023-02-17T18:57:47.730Z,100648.74
2023-02-17T19:00:16.803Z,100646.27
2023-02-17T19:02:44.985Z,100638.28
2023-02-17T19:05:13.870Z,100636.34
2023-02-17T19:07:41.914Z,100635.46
2023-02-17T19:10:10.772Z,100624.00
2023-02-17T19:12:38.786Z,100616.59
2023-02-17T19:15:07.384Z,100615.80
2023-02-17T19:17:35.824Z,100619.04
2023-02-17T19:20:04.126Z,100621.12
2023-02-17T19:22:37.966Z,100619.11
2023-02-17T19:25:06.675Z,100611.30
2023-02-17T19:27:34.593Z,100608.17
2023-02-17T19:30:02.615Z,100603.12
2023-02-17T19:32:30.748Z,100602.92
2023-02-17T19:34:58.752Z,100603.46
2023-02-17T19:37:26.593Z,100602.64
2023-02-17T19:39:54.566Z,100598.54
2023-02-17T19:42:22.554Z,100591.20
2023-02-17T19:44:50.435Z,100596.86
2023-02-17T19:47:18.450Z,100592.89
2023-02-17T19:49:46.362Z,100589.87
2023-02-17T19:52:14.242Z,100601.10
2023-02-17T19:54:42.291Z,100598.21
2023-02-17T19:57:10.202Z,100598.19
2023-02-17T19:59:38.279Z,100598.36
2023-02-17T20:02:06.707Z,100602.11
2023-02-17T20:04:34.712Z,100601.42
2023-02-17T20:07:02.766Z,100603.20
2023-02-17T20:09:32.240Z,100604.91
2023-02-17T20:12:00.270Z,100606.05
2023-02-17T20:14:31.386Z,100596.27
2023-02-17T20:17:00.776Z,100597.39
2023-02-17T20:19:29.041Z,100606.45
2023-02-17T20:21:57.016Z,100606.95
2023-02-17T20:24:25.117Z,100595.34
2023-02-17T20:26:57.704Z,100586.51
2023-02-17T20:29:25.899Z,100575.16
2023-02-17T20:31:53.905Z,100568.19
2023-02-17T20:34:28.164Z,100570.80
2023-02-17T20:36:57.865Z,100573.39
2023-02-17T20:39:26.237Z,100577.51
2023-02-17T20:41:55.989Z,100558.52
2023-02-17T20:44:27.764Z,100559.38
2023-02-17T20:46:57.212Z,100561.59
2023-02-17T20:49:26.022Z,100553.79
2023-02-17T20:51:54.245Z,100552.37
2023-02-17T20:54:25.530Z,100559.30
2023-02-17T20:56:53.869Z,100560.01
2023-02-17T20:59:21.870Z,100567.01
2023-02-17T21:01:49.992Z,100559.65
2023-02-17T21:04:18.417Z,100553.02
2023-02-17T21:06:47.772Z,100541.91
2023-02-17T21:09:18.717Z,100537.89
2023-02-17T21:11:47.037Z,100532.08
2023-02-17T21:14:15.309Z,100521.71
2023-02-17T21:16:43.297Z,100527.00
2023-02-17T21:19:11.238Z,100531.54
2023-02-17T21:21:39.293Z,100533.95
2023-02-17T21:24:07.742Z,100541.92
2023-02-17T21:26:36.066Z,100539.18
2023-02-17T21:29:04.877Z,100537.54
2023-02-17T21:31:33.217Z,100528.04
2023-02-17T21:34:01.436Z,100514.39
2023-02-17T21:36:29.789Z,100518.95
2023-02-17T21:38:58.274Z,100517.98
2023-02-17T21:41:27.818Z,100510.20
2023-02-17T21:44:15.532Z,100512.00
2023-02-17T21:46:45.253Z,100510.03
2023-02-17T21:49:13.845Z,100513.22
2023-02-17T21:51:41.966Z,100499.10
2023-02-17T21:54:10.513Z,100490.93
2023-02-17T21:56:38.790Z,100497.69
2023-02-17T21:59:08.004Z,100500.48
2023-02-17T22:01:36.848Z,100507.46
2023-02-17T22:04:05.173Z,100512.21
2023-02-17T22:06:37.172Z,100521.52
2023-02-17T22:09:07.391Z,100534.10
2023-02-17T22:11:38.936Z,100537.20
2023-02-17T22:14:11.843Z,100536.30
2023-02-17T22:16:40.263Z,100534.31
2023-02-17T22:19:12.706Z,100526.02
2023-02-17T22:21:40.834Z,100514.46
2023-02-17T22:24:09.233Z,100519.95
2023-02-17T22:26:37.340Z,100519.28
2023-02-17T22:29:05.889Z,100518.50
2023-02-17T22:31:35.805Z,100522.20
2023-02-17T22:34:07.195Z,100522.48
2023-02-17T22:36:36.293Z,100523.92
2023-02-17T22:39:06.515Z,100530.67
2023-02-17T22:41:35.577Z,100527.76
2023-02-17T22:44:04.079Z,100528.24
2023-02-17T22:46:32.663Z,100525.92
2023-02-17T22:49:01.146Z,100524.21
2023-02-17T22:51:35.792Z,100520.52
2023-02-17T22:54:04.692Z,100513.98
2023-02-17T22:56:32.971Z,100507.75
2023-02-17T22:59:03.903Z,100505.90
2023-02-17T23:01:34.132Z,100516.48
2023-02-17T23:04:02.424Z,100516.58
2023-02-17T23:06:33.096Z,100512.34
2023-02-17T23:09:01.606Z,100508.78
2023-02-17T23:11:54.875Z,100500.98
2023-02-17T23:14:22.844Z,100496.49
2023-02-17T23:16:51.906Z,100491.92
2023-02-17T23:19:21.592Z,100485.04
2023-02-17T23:21:53.314Z,100481.08
2023-02-17T23:24:23.717Z,100475.16
2023-02-17T23:26:55.865Z,100474.69
2023-02-17T23:29:23.885Z,100476.19
2023-02-17T23:31:52.313Z,100475.63
2023-02-17T23:34:20.293Z,100469.23
2023-02-17T23:36:49.163Z,100459.86
2023-02-17T23:39:17.550Z,100454.84
2023-02-17T23:41:45.925Z,100455.39
2023-02-17T23:44:15.164Z,100449.41
2023-02-17T23:46:44.535Z,100443.20
2023-02-17T23:49:15.840Z,100439.00
2023-02-17T23:51:44.961Z,100430.24
2023-02-17T23:54:13.887Z,100427.44
2023-02-17T23:56:42.604Z,100437.42
2023-02-17T23:59:11.663Z,100442.00
